Latest Coastal Weather Observations for Warruwi

IDD60701

Issued at 12:11 pm CST Friday 30 January 2015 (issued every 10 minutes, with the page automatically refreshed every 10 minutes)

About coastal observations | Map of coastal stations | Coastal observations for NT | Marine services | Other Formats
Station Details ID: 014401 Name: WARRUWI AIRPORT Lat: -11.65 Lon: 133.38 Height: 19.2 m
Data from the previous 72 hours. | See also: Recent months at Warruwi
Date/Time
CST
Temp

°C
Wind Pressure Rain
since 9am
mm
Weather Cloud Vis
km
Sea
Height
m
Swell
Dir
 
Speed
knots
Gust
knots
hPa Trend Height
m
Period
s
Dir
30/12:00pm 31.2 NW 6 11 1008.2 - 0.0 - - - - - - -
30/11:30am 31.0 NW 8 13 1008.6 - 0.0 - - - - - - -
30/11:00am 30.4 NW 6 11 1008.8 - 0.0 - - - - - - -
30/10:30am 30.6 WNW 8 13 1008.9 - 0.0 - - - - - - -
30/10:00am 29.4 WNW 9 12 1008.9 - 0.0 - - - - - - -
30/09:30am 29.2 WNW 5 8 1008.5 - 0.0 - - - - - - -
30/09:00am 29.2 WNW 5 8 1008.3 - 0.0 - - - - - - -
30/08:30am 28.8 WNW 5 8 1008.2 - 0.0 - - - - - - -
30/08:00am 28.0 WNW 5 8 1008.2 - 0.0 - - - - - - -
30/07:30am 28.0 WNW 6 9 1008.0 - 0.0 - - - - - - -
30/07:00am 27.7 WNW 5 9 1007.7 - 0.0 - - - - - - -
30/06:30am 27.6 WNW 6 10 1007.5 - 0.0 - - - - - - -
30/06:00am 27.6 W 7 10 1007.1 - 0.0 - - - - - - -
30/05:30am 27.6 WNW 8 11 1007.1 - 0.0 - - - - - - -
30/05:00am 27.6 WNW 7 12 1006.9 - 0.0 - - - - - - -
30/04:30am 27.6 W 8 10 1006.5 - 0.0 - - - - - - -
30/04:00am 27.7 W 9 11 1006.4 - 0.0 - - - - - - -
30/03:30am 28.1 WNW 7 10 1006.4 - 0.0 - - - - - - -
30/03:00am 28.1 WNW 9 13 1006.4 - 0.0 - - - - - - -
30/02:30am 28.1 WNW 7 10 1006.5 - 0.0 - - - - - - -
30/02:00am 28.1 WNW 6 9 1006.7 - 0.0 - - - - - - -
30/01:30am 28.2 NW 6 11 1007.2 - 0.0 - - - - - - -
30/01:00am 28.2 NW 6 10 1007.8 - 0.0 - - - - - - -
30/12:30am 28.3 NW 6 11 1008.2 - 0.0 - - - - - - -
30/12:00am 28.3 NW 6 11 1008.5 - 0.0 - - - - - - -
 
Date/Time
CST
Temp

°C
Wind Pressure Rain
since 9am
mm
Weather Cloud Vis
km
Sea
Height
m
Swell
Dir
 
Speed
knots
Gust
knots
hPa Trend Height
m
Period
s
Dir
29/11:30pm 28.3 NW 5 8 1008.6 - 0.0 - - - - - - -
29/11:00pm 28.4 NW 7 11 1008.9 - 0.0 - - - - - - -
29/10:30pm 28.4 NW 6 10 1008.6 - 0.0 - - - - - - -
29/10:00pm 28.2 NW 4 7 1008.4 - 0.0 - - - - - - -
29/09:30pm 28.1 NW 4 7 1008.0 - 0.0 - - - - - - -
29/09:00pm 28.2 NNW 3 5 1007.6 - 0.0 - - - - - - -
29/08:30pm 28.3 NW 3 5 1007.2 - 0.0 - - - - - - -
29/08:00pm 28.6 NNW 3 6 1006.8 - 0.0 - - - - - - -
29/07:30pm 28.7 NNW 3 6 1006.5 - 0.0 - - - - - - -
29/07:00pm 28.7 NNW 3 7 1006.2 - 0.0 - - - - - - -
29/06:30pm 29.0 NNW 4 8 1005.9 - 0.0 - - - - - - -
29/06:00pm 29.1 NNW 6 9 1005.2 - 0.0 - - - - - - -
29/05:30pm 29.4 NNW 6 10 1004.8 - 0.0 - - - - - - -
29/05:00pm 30.8 NNW 5 9 1004.5 - 0.0 - - - - - - -
29/04:30pm 31.4 N 6 9 1004.4 - 0.0 - - - - - - -
29/04:00pm 31.3 N 4 9 1004.3 - 0.0 - - - - - - -
29/03:30pm 32.1 WNW 4 6 1004.2 - 0.0 - - - - - - -
29/03:00pm 32.1 WNW 4 6 1004.4 - 0.0 - - - - - - -
29/02:30pm 32.2 WNW 4 7 1004.6 - 0.0 - - - - - - -
29/02:00pm 32.1 WNW 4 6 1005.0 - 0.0 - - - - - - -
29/01:30pm 30.9 WNW 4 7 1005.4 - 0.0 - - - - - - -
29/01:00pm 30.5 WNW 6 10 1005.6 - 0.0 - - - - - - -
29/12:30pm 30.6 WNW 7 10 1006.2 - 0.0 - - - - - - -
29/12:00pm 30.3 WNW 7 10 1006.6 - 0.0 - - - - - - -
29/11:30am 30.1 W 7 10 1006.8 - 0.0 - - - - - - -
29/11:00am 29.4 WNW 6 8 1007.4 - 0.0 - - - - - - -
29/10:30am 28.9 WNW 5 7 1007.8 - 0.0 - - - - - - -
29/10:00am 28.3 NW 3 5 1007.8 - 0.0 - - - - - - -
29/09:30am 28.5 WNW 4 7 1007.6 - 0.0 - - - - - - -
29/09:00am 27.9 WNW 3 5 1007.0 - 0.0 - - - - - - -
29/08:30am 27.0 NW 3 4 1006.7 - 0.0 - - - - - - -
29/08:00am 26.5 WNW 3 5 1006.1 - 0.0 - - - - - - -
29/07:30am 26.1 CALM 0 0 1005.8 - 0.0 - - - - - - -
29/07:00am 25.7 CALM 0 0 1005.6 - 0.0 - - - - - - -
29/06:30am 25.8 WSW 2 4 1005.2 - 0.0 - - - - - - -
29/06:00am 25.6 WSW 3 4 1005.1 - 0.0 - - - - - - -
29/05:30am 25.4 W 3 4 1005.2 - 0.0 - - - - - - -
29/05:00am 25.3 WSW 3 4 1005.1 - 0.0 - - - - - - -
29/04:30am 25.3 SSW 3 4 1005.0 - 0.0 - - - - - - -
29/04:00am 25.3 WSW 4 5 1005.3 - 0.0 - - - - - - -
29/03:30am 25.1 SW 5 9 1005.5 - 0.0 - - - - - - -
29/03:00am 25.0 SSW 5 7 1005.9 - 0.0 - - - - - - -
29/02:30am 24.8 S 6 10 1006.1 - 0.0 - - - - - - -
29/02:00am 25.1 S 8 11 1006.2 - 0.0 - - - - - - -
29/01:30am 25.5 S 6 9 1007.0 - 0.0 - - - - - - -
29/01:00am 25.9 S 5 8 1007.2 - 0.0 - - - - - - -
29/12:30am 25.8 SSE 5 9 1007.3 - 0.0 - - - - - - -
29/12:00am 25.7 SSW 5 8 1007.5 - 0.0 - - - - - - -
 
Date/Time
CST
Temp

°C
Wind Pressure Rain
since 9am
mm
Weather Cloud Vis
km
Sea
Height
m
Swell
Dir
 
Speed
knots
Gust
knots
hPa Trend Height
m
Period
s
Dir
28/11:30pm 25.5 SE 8 11 1008.0 - 0.0 - - - - - - -
28/11:00pm 25.9 SE 7 11 1008.5 - 0.0 - - - - - - -
28/10:30pm 26.0 SE 11 17 1008.6 - 0.0 - - - - - - -
28/10:00pm 26.7 SSE 6 9 1008.0 - 0.0 - - - - - - -
28/09:30pm 27.2 S 5 8 1007.4 - 0.0 - - - - - - -
28/09:00pm 27.5 SSW 3 5 1007.1 - 0.0 - - - - - - -
28/08:30pm 27.6 WSW 4 6 1006.0 - 0.0 - - - - - - -
28/08:00pm 27.9 W 8 11 1005.2 - 0.0 - - - - - - -
28/07:30pm 28.1 W 9 15 1005.0 - 0.0 - - - - - - -
28/07:00pm 28.3 W 10 14 1004.5 - 0.0 - - - - - - -
28/06:30pm 29.0 W 9 13 1004.3 - 0.0 - - - - - - -
28/06:00pm 29.6 NW 7 15 1003.5 - 0.0 - - - - - - -
28/05:30pm 29.8 NW 8 15 1003.0 - 0.0 - - - - - - -
28/05:00pm 30.5 NW 7 13 1002.5 - 0.0 - - - - - - -
28/04:30pm 30.9 NNW 7 13 1001.7 - 0.0 - - - - - - -
28/04:00pm 31.2 NW 7 12 1001.8 - 0.0 - - - - - - -
28/03:30pm 31.6 NNW 6 11 1002.5 - 0.0 - - - - - - -
28/03:00pm 31.1 NNW 6 10 1003.1 - 0.0 - - - - - - -
28/02:30pm 31.4 NNW 7 11 1003.6 - 0.0 - - - - - - -
28/02:00pm 31.0 NNW 6 11 1003.9 - 0.0 - - - - - - -
28/01:30pm 31.4 NW 4 7 1004.2 - 0.0 - - - - - - -
28/01:00pm 31.3 NW 5 8 1004.4 - 0.0 - - - - - - -
28/12:30pm 31.1 NW 5 8 1004.9 - 0.0 - - - - - - -
28/12:00pm 31.0 WNW 5 8 1005.4 - 0.0 - - - - - - -
28/11:30am 30.2 WNW 4 7 1005.6 - 0.0 - - - - - - -
28/11:00am 29.8 WNW 6 8 1005.6 - 0.0 - - - - - - -
28/10:30am 29.4 WNW 5 8 1005.7 - 0.0 - - - - - - -
28/10:00am 28.8 WNW 3 5 1005.5 - 0.0 - - - - - - -
28/09:30am 28.3 WSW 3 4 1005.8 - 0.0 - - - - - - -
28/09:00am 27.7 WSW 4 7 1005.7 - 0.0 - - - - - - -
28/08:30am 27.7 WSW 5 8 1005.5 - 0.0 - - - - - - -
28/08:00am 27.5 WSW 4 7 1005.3 - 0.0 - - - - - - -
28/07:30am 27.5 W 8 10 1005.2 - 0.0 - - - - - - -
28/07:00am 27.4 W 8 10 1004.8 - 0.0 - - - - - - -
28/06:30am 27.2 W 8 11 1004.5 - 0.0 - - - - - - -
28/06:00am 27.2 WSW 7 10 1003.9 - 0.0 - - - - - - -
28/05:30am 26.9 W 5 7 1003.7 - 0.0 - - - - - - -
28/05:00am 26.9 WSW 5 7 1003.7 - 0.0 - - - - - - -
28/04:30am 26.9 WSW 6 9 1003.7 - 0.0 - - - - - - -
28/04:00am 27.0 WSW 7 10 1003.9 - 0.0 - - - - - - -
28/03:30am 27.2 WSW 7 11 1004.2 - 0.0 - - - - - - -
28/03:00am 27.3 WSW 8 12 1004.4 - 0.0 - - - - - - -
28/02:30am 27.4 WSW 7 12 1004.6 - 0.0 - - - - - - -
28/02:00am 27.6 WSW 8 13 1004.9 - 0.0 - - - - - - -
28/01:30am 27.9 WSW 9 14 1005.1 - 0.0 - - - - - - -
28/01:00am 28.1 WSW 10 14 1005.4 - 0.0 - - - - - - -
28/12:30am 28.1 WSW 9 13 1006.0 - 0.0 - - - - - - -
28/12:00am 28.1 W 9 12 1006.5 - 0.0 - - - - - - -
 
Date/Time
CST
Temp

°C
Wind Pressure Rain
since 9am
mm
Weather Cloud Vis
km
Sea
Height
m
Swell
Dir
 
Speed
knots
Gust
knots
hPa Trend Height
m
Period
s
Dir
27/11:30pm 28.1 W 12 16 1006.7 - 0.0 - - - - - - -
27/11:00pm 28.2 W 9 13 1006.9 - 0.0 - - - - - - -
27/10:30pm 28.2 W 9 13 1006.9 - 0.0 - - - - - - -
27/10:00pm 28.2 W 11 14 1006.8 - 0.0 - - - - - - -
27/09:30pm 28.4 WNW 11 15 1006.6 - 0.0 - - - - - - -
27/09:00pm 28.5 WNW 11 15 1006.1 - 0.0 - - - - - - -
27/08:30pm 28.8 WNW 9 13 1005.3 - 0.0 - - - - - - -
27/08:00pm 29.1 WNW 8 11 1005.2 - 0.0 - - - - - - -
27/07:30pm 29.3 W 10 13 1004.7 - 0.0 - - - - - - -
27/07:00pm 29.3 W 8 10 1004.5 - 0.0 - - - - - - -
27/06:30pm 29.6 WSW 8 11 1004.2 - 0.0 - - - - - - -
27/06:00pm 28.7 WNW 5 9 1003.8 - 0.0 - - - - - - -
27/05:30pm 28.7 NW 5 8 1003.2 - 0.0 - - - - - - -
27/05:00pm 28.5 SW 3 6 1003.2 - 0.0 - - - - - - -
27/04:30pm 28.9 NW 4 8 1003.7 - 0.0 - - - - - - -
27/04:00pm 28.9 WNW 7 11 1003.8 - 0.0 - - - - - - -
27/03:30pm 29.1 NW 6 13 1003.8 - 0.0 - - - - - - -
27/03:00pm 29.4 WNW 5 8 1004.6 - 0.0 - - - - - - -
27/02:30pm 29.9 NW 7 11 1004.9 - 0.0 - - - - - - -
27/02:00pm 30.6 WNW 7 11 1004.9 - 0.0 - - - - - - -
27/01:30pm 31.4 WNW 6 10 1005.4 - 0.0 - - - - - - -
27/01:00pm 31.0 WNW 7 11 1005.8 - 0.0 - - - - - - -
27/12:30pm 31.1 WNW 6 10 1006.2 - 0.0 - - - - - - -

Other Formats:

Comma delimited format used in spreadsheet applications
http://www.bom.gov.au/fwo/IDD60701/IDD60701.94139.axf

JavaScript Object Notation format (JSON) in row-major order
http://www.bom.gov.au/fwo/IDD60701/IDD60701.94139.json